createdAt,value
2018-02-16T00:02:28.712Z,18.97
2018-02-16T00:04:57.858Z,29.27
2018-02-16T00:07:27.014Z,17.60
2018-02-16T00:09:56.154Z,28.75
2018-02-16T00:12:25.295Z,18.00
2018-02-16T00:14:54.432Z,15.50
2018-02-16T00:17:23.631Z,18.67
2018-02-16T00:19:52.762Z,19.30
2018-02-16T00:22:21.911Z,19.07
2018-02-16T00:24:51.031Z,17.97
2018-02-16T00:27:20.219Z,19.40
2018-02-16T00:29:49.362Z,18.47
2018-02-16T00:32:18.478Z,18.43
2018-02-16T00:34:47.634Z,20.00
2018-02-16T00:37:16.867Z,26.60
2018-02-16T00:39:46.040Z,23.30
2018-02-16T00:42:15.202Z,34.45
2018-02-16T00:47:19.581Z,31.55
2018-02-16T00:49:48.731Z,22.43
2018-02-16T00:52:17.903Z,20.80
2018-02-16T00:54:47.064Z,28.05
2018-02-16T00:57:16.201Z,22.83
2018-02-16T00:59:45.391Z,30.85
2018-02-16T01:02:14.618Z,20.87
2018-02-16T01:04:43.779Z,31.98
2018-02-16T01:07:12.926Z,24.27
2018-02-16T01:09:42.089Z,19.90
2018-02-16T01:12:11.202Z,14.73
2018-02-16T01:14:40.351Z,12.20
2018-02-16T01:17:09.533Z,12.10
2018-02-16T01:19:38.681Z,11.80
2018-02-16T01:22:07.808Z,18.85
2018-02-16T01:24:36.948Z,14.20
2018-02-16T01:27:06.091Z,11.07
2018-02-16T01:29:35.242Z,17.48
2018-02-16T01:32:04.362Z,11.23
2018-02-16T01:34:37.956Z,10.10
2018-02-16T01:37:07.109Z,10.20
2018-02-16T01:39:36.260Z,9.30
2018-02-16T01:42:05.387Z,10.00
2018-02-16T01:44:34.612Z,10.17
2018-02-16T01:47:03.782Z,9.53
2018-02-16T01:49:45.735Z,10.00
2018-02-16T01:52:14.882Z,10.10
2018-02-16T01:54:44.038Z,9.90
2018-02-16T01:57:13.193Z,10.10
2018-02-16T01:59:42.342Z,14.35
2018-02-16T02:02:11.457Z,11.40
2018-02-16T02:04:40.607Z,15.88
2018-02-16T02:07:09.777Z,13.97
2018-02-16T02:09:38.923Z,12.27
